Time;durP1;ratioP1;P1;durP2;ratioP2;P2;SDS_P1;SDS_P2;PMS_P1;PMS_P2;Temp;Humidity;BMP_temperature;BMP_pressure;BME280_temperature;BME280_humidity;BME280_pressure;Samples;Min_cycle;Max_cycle;Signal;HPM_P1;HPM_P2
2021/07/11 00:00:37;;;;;;;41.47;8.23;;;;;;;18.59;86.16;97756.56;5030535;28;20056;-71
2021/07/11 00:03:03;;;;;;;41.47;7.47;;;;;;;18.85;85.52;97764.31;5031448;28;20065;-71
2021/07/11 00:05:30;;;;;;;40.10;7.05;;;;;;;19.28;86.82;97758.25;5032265;28;20045;-72
2021/07/11 00:07:56;;;;;;;42.60;8.02;;;;;;;19.22;85.40;97750.81;5032225;28;20100;-73
2021/07/11 00:10:22;;;;;;;39.78;8.07;;;;;;;19.01;85.99;97758.66;5030678;28;20098;-72
2021/07/11 00:12:49;;;;;;;41.17;7.88;;;;;;;18.26;87.34;97749.47;5031046;28;20028;-71
2021/07/11 00:15:17;;;;;;;45.20;8.63;;;;;;;17.97;89.57;97759.56;5030426;28;20030;-72
2021/07/11 00:18:44;;;;;;;44.38;8.23;;;;;;;18.07;89.74;97750.03;5051559;28;20388;-74
2021/07/11 00:21:09;;;;;;;38.53;8.40;;;;;;;17.99;90.27;97757.66;5041040;28;20045;-72
2021/07/11 00:23:34;;;;;;;39.13;8.38;;;;;;;18.34;87.42;97762.06;5033023;28;20037;-73
2021/07/11 00:26:00;;;;;;;37.05;8.43;;;;;;;17.41;92.57;97811.09;5032985;28;20136;-72
2021/07/11 00:28:25;;;;;;;35.97;8.13;;;;;;;16.93;98.35;97821.53;5032998;28;20029;-71
2021/07/11 00:30:51;;;;;;;34.95;8.85;;;;;;;17.31;94.55;97817.94;5033621;28;20041;-72
2021/07/11 00:33:16;;;;;;;35.00;7.80;;;;;;;17.45;94.98;97809.06;5033495;28;20057;-72
2021/07/11 00:35:41;;;;;;;32.95;7.95;;;;;;;18.07;93.67;97793.09;5031686;28;20072;-72
2021/07/11 00:38:07;;;;;;;36.40;8.82;;;;;;;17.77;91.42;97793.50;5033809;28;20025;-72
2021/07/11 00:40:32;;;;;;;38.35;8.32;;;;;;;17.89;90.23;97805.84;5031639;28;20072;-71
2021/07/11 00:42:57;;;;;;;40.20;8.57;;;;;;;18.07;91.42;97797.53;5032315;28;20510;-72
2021/07/11 00:45:23;;;;;;;40.83;8.57;;;;;;;18.25;90.92;97800.56;5034569;28;20107;-73
2021/07/11 00:47:48;;;;;;;34.60;7.95;;;;;;;18.24;91.80;97799.72;5034219;28;20027;-71
2021/07/11 00:50:17;;;;;;;31.10;7.30;;;;;;;18.94;90.27;97797.94;5032803;28;20037;-70
2021/07/11 00:52:42;;;;;;;31.50;6.72;;;;;;;19.58;88.02;97785.81;5032274;28;20079;-71
2021/07/11 00:55:09;;;;;;;35.17;8.18;;;;;;;19.73;83.51;97802.28;5033659;28;20041;-71
2021/07/11 00:57:34;;;;;;;30.13;7.43;;;;;;;19.38;83.62;97801.50;5031200;28;20029;-71
2021/07/11 01:00:00;;;;;;;30.02;7.70;;;;;;;19.07;86.95;97803.09;5033714;28;20056;-73
2021/07/11 01:02:35;;;;;;;58.67;10.43;;;;;;;18.56;86.03;97798.22;5025179;28;20037;-71
2021/07/11 01:05:09;;;;;;;32.88;7.50;;;;;;;18.95;89.13;97794.34;5033893;28;20642;-72
2021/07/11 01:07:37;;;;;;;43.53;8.48;;;;;;;18.83;87.11;97800.56;5031034;28;20112;-72
2021/07/11 01:10:38;;;;;;;38.83;8.25;;;;;;;18.69;86.17;97799.81;5033980;28;20033;-71
2021/07/11 01:13:06;;;;;;;39.78;7.45;;;;;;;19.59;86.61;97795.44;5033944;28;20083;-72
2021/07/11 01:15:34;;;;;;;36.00;8.68;;;;;;;18.63;85.65;97804.72;5035632;28;20407;-71
2021/07/11 01:18:06;;;;;;;39.25;7.85;;;;;;;18.54;86.46;97814.19;5032403;28;20025;-71
2021/07/11 01:20:49;;;;;;;38.85;8.15;;;;;;;18.92;86.81;97809.59;5031663;28;20045;-71
2021/07/11 01:23:33;;;;;;;28.25;6.57;;;;;;;19.21;87.10;97812.59;5031621;28;20848;-72
2021/07/11 01:26:01;;;;;;;37.15;8.40;;;;;;;18.90;86.15;97820.28;5030528;28;20072;-71
2021/07/11 01:28:26;;;;;;;30.45;6.97;;;;;;;19.11;87.68;97822.19;5028167;28;20484;-72
2021/07/11 01:30:54;;;;;;;35.75;7.07;;;;;;;19.33;86.71;97824.81;5017581;28;20045;-71
2021/07/11 01:33:22;;;;;;;37.60;8.98;;;;;;;18.86;84.06;97829.41;5017341;28;20034;-72
2021/07/11 01:35:49;;;;;;;31.35;8.30;;;;;;;18.40;87.28;97827.63;5018542;28;20045;-72
2021/07/11 01:38:15;;;;;;;34.33;8.05;;;;;;;18.11;89.81;97830.66;5018019;28;20143;-72
2021/07/11 01:40:42;;;;;;;31.98;8.18;;;;;;;18.02;90.06;97829.53;5018137;28;20108;-72
2021/07/11 01:43:09;;;;;;;36.58;9.40;;;;;;;17.91;90.01;97830.31;5016056;28;20104;-71
2021/07/11 01:45:35;;;;;;;30.90;8.27;;;;;;;18.33;88.79;97831.69;5021184;28;20045;-72
2021/07/11 01:48:01;;;;;;;34.58;8.48;;;;;;;18.50;89.31;97831.22;5018134;28;20029;-72
2021/07/11 01:50:27;;;;;;;31.65;7.00;;;;;;;19.07;89.04;97840.94;5017003;28;20030;-72
2021/07/11 01:52:54;;;;;;;34.72;8.05;;;;;;;18.88;88.07;97846.00;5018534;28;20033;-71
2021/07/11 01:55:21;;;;;;;36.60;8.00;;;;;;;18.82;90.45;97838.50;5020197;28;20108;-72
2021/07/11 01:57:46;;;;;;;37.65;8.98;;;;;;;19.01;85.76;97841.41;5016743;28;20048;-72
2021/07/11 02:01:18;;;;;;;41.13;9.05;;;;;;;18.98;85.62;97846.94;5037976;28;20404;-71
2021/07/11 02:03:44;;;;;;;32.55;8.30;;;;;;;19.11;86.24;97848.63;5028926;28;20037;-72
2021/07/11 02:06:12;;;;;;;31.08;8.00;;;;;;;18.80;87.00;97853.63;5027445;28;20091;-71
2021/07/11 02:08:39;;;;;;;31.85;8.48;;;;;;;18.40;86.51;97861.97;5026883;28;20029;-71
2021/07/11 02:11:05;;;;;;;35.58;9.35;;;;;;;18.11;87.97;97859.69;5035509;28;20034;-71
2021/07/11 02:13:51;;;;;;;37.97;9.90;;;;;;;18.08;88.00;97858.09;5028009;28;20033;-71
2021/07/11 02:16:41;;;;;;;35.92;9.20;;;;;;;18.07;88.68;97861.69;5029888;28;20030;-71
2021/07/11 02:19:07;;;;;;;40.17;9.30;;;;;;;18.56;88.19;97867.72;5026224;28;20037;-72
2021/07/11 02:21:34;;;;;;;48.00;8.85;;;;;;;18.36;89.88;97863.13;5028594;28;20091;-71
2021/07/11 02:24:04;;;;;;;27.55;8.07;;;;;;;18.74;89.05;97864.66;5030175;28;20036;-71
2021/07/11 02:26:29;;;;;;;39.45;8.98;;;;;;;18.72;88.98;97866.59;5029808;28;20480;-70
2021/07/11 02:28:56;;;;;;;37.88;8.68;;;;;;;18.15;90.80;97868.22;5027375;28;20060;-72
2021/07/11 02:31:26;;;;;;;41.45;8.63;;;;;;;18.18;90.45;97862.69;5027271;28;20513;-71
2021/07/11 02:33:52;;;;;;;32.97;7.53;;;;;;;18.61;90.41;97865.59;5026066;28;20744;-70
2021/07/11 02:36:28;;;;;;;32.25;8.48;;;;;;;17.98;90.42;97861.56;5026934;28;20042;-71
2021/07/11 02:38:57;;;;;;;30.50;8.23;;;;;;;18.28;89.48;97875.09;5026867;28;20025;-72
2021/07/11 02:41:27;;;;;;;34.78;8.63;;;;;;;18.21;89.72;97871.22;5026942;28;20044;-70
2021/07/11 02:43:55;;;;;;;32.78;8.40;;;;;;;18.17;90.91;97861.84;5027670;28;20060;-73
2021/07/11 02:48:41;;;;;;;43.75;8.60;;;;;;;18.38;90.93;97867.34;5094209;27;1233798;-70
2021/07/11 02:51:09;;;;;;;36.17;8.18;;;;;;;18.59;89.10;97870.16;5088026;28;20040;-71
2021/07/11 02:53:35;;;;;;;38.63;7.65;;;;;;;18.60;90.31;97852.50;5046316;28;20061;-70
2021/07/11 02:56:01;;;;;;;38.65;7.68;;;;;;;18.61;90.41;97857.66;5048130;28;20060;-71
2021/07/11 02:58:30;;;;;;;38.70;8.07;;;;;;;17.91;92.61;97858.50;5047778;28;20522;-71
2021/07/11 03:00:56;;;;;;;30.17;7.75;;;;;;;18.18;91.22;97858.28;5046324;28;20645;-73
2021/07/11 03:03:22;;;;;;;28.70;6.63;;;;;;;18.46;93.56;97856.19;5047943;28;20048;-71
2021/07/11 03:05:47;;;;;;;30.40;7.07;;;;;;;18.48;91.81;97859.56;5047336;28;20395;-71
2021/07/11 03:08:13;;;;;;;32.28;7.68;;;;;;;18.54;90.92;97861.72;5047810;28;20743;-71
2021/07/11 03:10:40;;;;;;;29.40;7.38;;;;;;;18.45;91.90;97870.34;5048608;28;20037;-70
2021/07/11 03:13:06;;;;;;;42.05;8.27;;;;;;;18.62;91.09;97871.75;5046639;28;20040;-71
2021/07/11 03:15:32;;;;;;;27.35;6.68;;;;;;;18.55;91.46;97866.06;5046514;28;20296;-71
2021/07/11 03:18:00;;;;;;;34.50;7.30;;;;;;;18.17;94.66;97875.06;5047322;28;20390;-71
2021/07/11 03:22:39;;;;;;;39.83;8.90;;;;;;;17.97;96.78;97873.88;5091248;27;20391;-70
2021/07/11 03:25:09;;;;;;;33.72;7.25;;;;;;;18.01;96.57;97883.28;5087098;28;20059;-71
2021/07/11 03:27:36;;;;;;;37.78;7.30;;;;;;;18.19;96.78;97886.34;5099737;28;20044;-70
2021/07/11 03:30:09;;;;;;;34.65;6.20;;;;;;;18.24;97.64;97891.28;5100217;28;20086;-72
2021/07/11 03:32:40;;;;;;;36.80;6.38;;;;;;;18.05;98.36;97883.91;5099851;28;20038;-72
2021/07/11 03:35:07;;;;;;;31.77;5.45;;;;;;;18.10;98.79;97889.66;5099364;28;20120;-74
2021/07/11 03:37:36;;;;;;;30.85;5.43;;;;;;;18.26;97.68;97892.00;5099250;28;20114;-71
2021/07/11 03:40:05;;;;;;;34.08;5.50;;;;;;;18.42;97.18;97900.47;5099398;28;20085;-71
2021/07/11 03:42:34;;;;;;;31.80;5.03;;;;;;;18.05;98.91;97899.72;5099623;28;20031;-73
2021/07/11 03:45:00;;;;;;;34.20;5.25;;;;;;;17.96;99.58;97905.66;5100188;28;20031;-71
2021/07/11 03:47:32;;;;;;;33.65;5.38;;;;;;;18.18;98.75;97905.78;5099006;28;20931;-70
2021/07/11 03:50:09;;;;;;;34.33;5.38;;;;;;;18.24;97.24;97915.06;5088671;27;20413;-71
2021/07/11 03:53:01;;;;;;;38.72;5.45;;;;;;;18.34;96.47;97920.47;5046937;28;20040;-71
2021/07/11 03:55:29;;;;;;;34.92;5.68;;;;;;;18.13;97.49;97922.91;5042497;28;20033;-70
2021/07/11 03:57:55;;;;;;;33.30;5.47;;;;;;;18.38;96.95;97927.22;5045205;28;20028;-69
2021/07/11 04:00:22;;;;;;;31.73;5.35;;;;;;;18.37;96.11;97928.19;5045810;28;20138;-70
2021/07/11 04:02:49;;;;;;;32.67;5.30;;;;;;;18.38;95.82;97927.22;5047838;28;20032;-69
2021/07/11 04:05:17;;;;;;;31.17;4.85;;;;;;;18.50;95.61;97927.16;5045208;28;20021;-67
2021/07/11 04:07:45;;;;;;;38.30;5.70;;;;;;;18.42;95.57;97936.63;5046767;28;20016;-69
2021/07/11 04:10:12;;;;;;;32.08;5.15;;;;;;;18.38;96.29;97943.06;5047730;28;20024;-68
2021/07/11 04:12:38;;;;;;;30.67;5.03;;;;;;;18.08;97.00;97942.56;5047935;28;20071;-69
2021/07/11 04:15:04;;;;;;;38.55;5.50;;;;;;;18.12;96.23;97943.16;5044739;28;20025;-69
2021/07/11 04:17:32;;;;;;;29.88;5.25;;;;;;;18.23;96.63;97942.38;5045705;28;20083;-71
2021/07/11 04:20:00;;;;;;;40.42;5.55;;;;;;;18.39;94.72;97939.47;5046101;28;20032;-70
2021/07/11 04:22:27;;;;;;;38.92;5.70;;;;;;;18.21;95.72;97946.94;5047035;28;20056;-71
2021/07/11 04:24:53;;;;;;;40.92;5.55;;;;;;;18.30;95.29;97944.47;5046047;28;20037;-72
2021/07/11 04:27:20;;;;;;;31.70;5.05;;;;;;;18.08;97.84;97944.34;5045361;28;20052;-70
2021/07/11 04:29:49;;;;;;;38.92;5.57;;;;;;;18.17;95.56;97935.75;5047776;28;20024;-71
2021/07/11 04:32:18;;;;;;;25.48;4.85;;;;;;;18.35;94.51;97938.03;5047141;28;20055;-70
2021/07/11 04:34:44;;;;;;;32.10;5.05;;;;;;;18.20;96.11;97947.91;5048725;28;20060;-71
2021/07/11 04:37:11;;;;;;;33.25;5.38;;;;;;;18.14;96.49;97943.94;5045726;28;20057;-71
2021/07/11 04:39:37;;;;;;;30.98;4.97;;;;;;;18.44;94.02;97950.56;5047607;28;20025;-70
2021/07/11 04:42:03;;;;;;;27.98;4.90;;;;;;;18.56;93.81;97952.25;5046775;28;20044;-69
2021/07/11 04:44:29;;;;;;;34.90;5.55;;;;;;;18.45;94.24;97952.22;5046379;28;20028;-70
2021/07/11 04:46:54;;;;;;;33.30;5.35;;;;;;;18.34;94.58;97946.88;5045958;28;20029;-71
2021/07/11 04:49:22;;;;;;;26.98;4.97;;;;;;;18.42;93.75;97955.09;5048455;28;20090;-71
2021/07/11 04:51:49;;;;;;;33.58;5.32;;;;;;;18.50;92.64;97950.91;5048375;28;20033;-70
2021/07/11 04:54:14;;;;;;;30.17;5.00;;;;;;;18.57;93.93;97953.97;5046830;28;20029;-70
2021/07/11 04:56:39;;;;;;;32.25;5.30;;;;;;;18.43;94.22;97956.78;5046569;28;20041;-70
2021/07/11 04:59:05;;;;;;;32.90;5.10;;;;;;;18.41;95.20;97959.53;5044865;28;20028;-71
2021/07/11 05:01:31;;;;;;;36.33;5.53;;;;;;;18.38;94.54;97964.19;5032254;28;20100;-71
2021/07/11 05:03:56;;;;;;;33.08;5.35;;;;;;;18.43;95.00;97956.78;5033134;28;20025;-72
2021/07/11 05:06:22;;;;;;;36.90;5.45;;;;;;;18.38;94.89;97954.50;5031306;28;20036;-71
2021/07/11 05:08:48;;;;;;;34.83;4.75;;;;;;;18.43;94.41;97951.50;5034395;28;20445;-71
2021/07/11 05:11:13;;;;;;;33.67;5.30;;;;;;;18.33;95.20;97955.78;5032935;28;20037;-70
2021/07/11 05:13:39;;;;;;;30.63;5.20;;;;;;;18.42;95.18;97960.38;5033414;28;20605;-71
2021/07/11 05:16:04;;;;;;;30.20;4.85;;;;;;;18.41;95.02;97961.31;5033255;28;20033;-70
2021/07/11 05:18:30;;;;;;;33.88;5.05;;;;;;;18.54;94.18;97964.75;5033644;28;20489;-71
2021/07/11 05:20:55;;;;;;;40.55;5.47;;;;;;;18.59;92.34;97961.78;5032133;28;20065;-71
2021/07/11 05:23:21;;;;;;;31.13;4.95;;;;;;;18.43;93.78;97962.88;5032904;28;20032;-71
2021/07/11 05:25:47;;;;;;;36.47;5.35;;;;;;;18.55;93.78;97966.44;5032360;28;20029;-71
2021/07/11 05:28:13;;;;;;;35.17;5.28;;;;;;;18.21;94.78;97960.97;5032982;28;20028;-71
2021/07/11 05:30:38;;;;;;;38.35;5.55;;;;;;;18.15;95.01;97969.34;5033568;28;20453;-72
2021/07/11 05:33:04;;;;;;;39.05;5.13;;;;;;;18.69;92.77;97973.31;5032757;28;20111;-71
2021/07/11 05:35:29;;;;;;;29.27;4.47;;;;;;;18.57;92.21;97969.81;5033842;28;20044;-71
2021/07/11 05:37:54;;;;;;;35.38;5.05;;;;;;;18.55;93.23;97961.16;5032872;28;20021;-70
2021/07/11 05:40:21;;;;;;;27.58;4.32;;;;;;;18.33;92.57;97971.63;5031634;28;20033;-71
2021/07/11 05:42:47;;;;;;;25.92;4.47;;;;;;;18.26;93.19;97964.13;5031881;28;20549;-72
2021/07/11 05:45:13;;;;;;;31.08;4.43;;;;;;;18.37;92.53;97963.34;5034926;28;20433;-70
2021/07/11 05:47:39;;;;;;;41.75;5.43;;;;;;;18.23;93.56;97966.16;5033994;28;20029;-71
2021/07/11 05:50:06;;;;;;;34.85;4.90;;;;;;;18.14;93.51;97964.19;5031222;28;20026;-70
2021/07/11 05:52:31;;;;;;;33.45;4.53;;;;;;;17.98;93.99;97967.09;5032455;28;20056;-70
2021/07/11 05:54:57;;;;;;;33.25;4.60;;;;;;;18.00;93.86;97970.47;5033939;28;20060;-70
2021/07/11 05:57:24;;;;;;;27.52;4.32;;;;;;;18.20;92.60;97967.22;5030701;28;20647;-71
2021/07/11 05:59:49;;;;;;;33.47;4.63;;;;;;;17.75;94.00;97966.91;5032917;28;20021;-70
2021/07/11 06:02:14;;;;;;;32.40;4.60;;;;;;;17.68;95.76;97976.19;5031262;28;20098;-72
2021/07/11 06:04:40;;;;;;;36.45;4.93;;;;;;;17.69;95.37;97967.34;5033957;28;20056;-71
2021/07/11 06:07:05;;;;;;;27.75;3.92;;;;;;;18.15;95.03;97969.34;5034214;28;20064;-71
2021/07/11 06:09:30;;;;;;;37.17;4.90;;;;;;;18.15;93.33;97972.00;5032548;28;20025;-71
2021/07/11 06:12:58;;;;;;;40.40;5.13;;;;;;;18.01;94.49;97969.50;5087376;27;21379;-70
2021/07/11 06:15:23;;;;;;;32.70;4.50;;;;;;;18.10;93.88;97966.19;5083733;27;20039;-73
2021/07/11 06:17:48;;;;;;;38.97;5.07;;;;;;;18.18;94.19;97969.16;5047533;28;20359;-73
2021/07/11 06:20:14;;;;;;;27.83;4.13;;;;;;;18.19;94.44;97965.53;5047916;28;20148;-70
2021/07/11 06:22:40;;;;;;;25.77;4.30;;;;;;;18.14;94.48;97975.59;5032054;28;20056;-71
2021/07/11 06:25:07;;;;;;;34.95;4.50;;;;;;;18.14;93.59;97977.38;5049074;28;20025;-71
2021/07/11 06:27:38;;;;;;;31.75;4.32;;;;;;;18.17;95.54;97970.09;5048845;28;20637;-70
2021/07/11 06:30:09;;;;;;;35.95;4.57;;;;;;;18.02;96.99;97963.28;5048747;28;20063;-69
2021/07/11 06:32:36;;;;;;;30.27;4.55;;;;;;;17.91;99.49;97962.25;5050592;28;20052;-70
2021/07/11 06:35:03;;;;;;;32.88;4.47;;;;;;;17.93;99.33;97967.41;5047383;28;20067;-72
2021/07/11 06:37:28;;;;;;;31.20;4.60;;;;;;;18.13;96.80;97971.25;5048280;28;20474;-73
2021/07/11 06:40:15;;;;;;;29.27;4.30;;;;;;;18.03;98.45;97976.38;5084319;27;20420;-71
2021/07/11 06:42:41;;;;;;;35.88;4.57;;;;;;;18.33;97.26;97977.75;5046548;28;20033;-70
2021/07/11 06:45:09;;;;;;;26.73;4.55;;;;;;;18.05;100.00;97968.34;5046527;28;20025;-72
2021/07/11 06:47:34;;;;;;;31.05;4.43;;;;;;;17.92;100.00;97963.13;5046366;28;20032;-72
2021/07/11 06:50:00;;;;;;;27.42;4.32;;;;;;;17.93;100.00;97948.94;5048712;28;20027;-71
2021/07/11 06:52:26;;;;;;;32.03;4.82;;;;;;;18.06;100.00;97956.81;5046098;28;20040;-71
2021/07/11 06:54:51;;;;;;;28.92;4.53;;;;;;;17.89;100.00;97948.31;5046353;28;20151;-72
2021/07/11 06:57:18;;;;;;;35.20;4.55;;;;;;;17.71;100.00;97934.63;5046667;28;20406;-70
2021/07/11 06:59:44;;;;;;;31.58;4.50;;;;;;;17.92;100.00;97942.84;5046947;28;20025;-71
2021/07/11 07:02:09;;;;;;;33.95;4.63;;;;;;;18.61;99.47;97963.31;5046632;28;20044;-70
2021/07/11 07:04:35;;;;;;;31.95;4.75;;;;;;;18.56;97.19;97977.84;5048301;28;20028;-72
2021/07/11 07:07:00;;;;;;;36.75;5.25;;;;;;;18.20;97.12;97984.88;5046434;28;20123;-71
2021/07/11 07:10:23;;;;;;;27.23;4.47;;;;;;;18.19;99.59;97989.28;5063357;27;20386;-71
2021/07/11 07:12:48;;;;;;;30.23;4.65;;;;;;;17.99;100.00;97987.25;5039783;28;20033;-70
2021/07/11 07:15:14;;;;;;;29.73;4.57;;;;;;;17.77;100.00;97986.09;5040155;28;20028;-71
2021/07/11 07:17:39;;;;;;;33.28;4.80;;;;;;;17.89;100.00;97984.44;5059908;28;20064;-71
2021/07/11 07:20:07;;;;;;;37.58;5.32;;;;;;;18.09;100.00;97990.94;5059487;28;20153;-72
2021/07/11 07:22:33;;;;;;;31.67;4.75;;;;;;;18.16;100.00;98002.72;5059446;28;20516;-71
2021/07/11 07:24:59;;;;;;;28.00;4.57;;;;;;;18.30;99.92;97999.91;5059811;28;20036;-71
2021/07/11 07:27:24;;;;;;;38.20;5.18;;;;;;;18.05;100.00;98003.50;5059295;28;20032;-71
2021/07/11 07:29:49;;;;;;;35.78;5.13;;;;;;;17.94;100.00;98002.56;5059401;28;20028;-71
2021/07/11 07:32:15;;;;;;;29.52;4.68;;;;;;;18.00;100.00;98002.13;5059058;28;20074;-72
2021/07/11 07:34:40;;;;;;;33.90;4.40;;;;;;;17.83;100.00;97998.88;5059272;28;20044;-71
2021/07/11 07:37:06;;;;;;;28.20;4.53;;;;;;;17.83;100.00;97998.88;5059040;28;20033;-70
2021/07/11 07:39:31;;;;;;;27.63;4.47;;;;;;;17.85;100.00;97998.78;5058178;28;20033;-70
2021/07/11 07:41:57;;;;;;;26.60;4.53;;;;;;;17.87;100.00;98004.81;5058807;28;20040;-70
2021/07/11 07:44:22;;;;;;;30.42;4.65;;;;;;;18.27;100.00;98010.72;5059359;28;20217;-72
2021/07/11 07:46:48;;;;;;;31.60;4.43;;;;;;;18.30;100.00;98015.75;5058576;28;20714;-71
2021/07/11 07:49:14;;;;;;;26.40;4.30;;;;;;;18.51;100.00;98012.53;5058924;28;20060;-72
2021/07/11 07:51:40;;;;;;;37.92;5.03;;;;;;;18.41;99.54;98016.78;5058492;28;20091;-70
2021/07/11 07:54:06;;;;;;;32.28;4.65;;;;;;;18.27;100.00;98009.88;5059220;28;20024;-71
2021/07/11 07:56:31;;;;;;;31.20;4.68;;;;;;;18.22;100.00;98023.41;5058502;28;20098;-71
2021/07/11 07:58:56;;;;;;;35.90;4.80;;;;;;;18.36;100.00;98011.84;5058838;28;20055;-71
2021/07/11 08:01:22;;;;;;;33.00;4.72;;;;;;;18.02;100.00;98026.63;5058224;28;20076;-71
2021/07/11 08:03:47;;;;;;;27.95;4.43;;;;;;;18.01;100.00;98019.63;5058994;28;20032;-71
2021/07/11 08:06:12;;;;;;;25.90;4.25;;;;;;;18.21;100.00;98021.69;5058281;28;20044;-71
2021/07/11 08:08:38;;;;;;;29.05;4.55;;;;;;;18.32;100.00;98028.84;5058633;28;20043;-70
2021/07/11 08:11:04;;;;;;;33.92;4.78;;;;;;;18.40;100.00;98030.97;5056379;28;20087;-73
2021/07/11 08:13:29;;;;;;;32.35;4.80;;;;;;;18.54;100.00;98033.41;5058485;28;20650;-72
2021/07/11 08:15:55;;;;;;;29.15;4.65;;;;;;;18.58;99.61;98031.38;5057789;28;20036;-72
2021/07/11 08:18:20;;;;;;;33.58;4.82;;;;;;;18.23;100.00;98035.66;5058445;28;20075;-74
2021/07/11 08:20:45;;;;;;;26.42;4.50;;;;;;;18.20;100.00;98030.59;5050296;28;20077;-71
2021/07/11 08:23:11;;;;;;;29.50;4.82;;;;;;;18.06;100.00;98034.19;5044942;28;20048;-70
2021/07/11 08:25:36;;;;;;;31.63;4.88;;;;;;;18.24;100.00;98042.59;5044827;28;20569;-68
2021/07/11 08:28:02;;;;;;;38.30;5.15;;;;;;;18.52;100.00;98040.59;5044868;28;20055;-70
2021/07/11 08:30:27;;;;;;;37.17;5.10;;;;;;;18.49;100.00;98035.56;5044568;28;20033;-70
2021/07/11 08:32:53;;;;;;;36.92;4.90;;;;;;;18.37;100.00;98047.00;5044804;28;20029;-71
2021/07/11 08:35:18;;;;;;;33.00;5.00;;;;;;;18.65;100.00;98046.66;5044309;28;20143;-71
2021/07/11 08:37:44;;;;;;;37.05;5.22;;;;;;;18.59;100.00;98047.13;5044833;28;20048;-72
2021/07/11 08:40:11;;;;;;;27.15;4.95;;;;;;;18.57;99.98;98040.28;5044356;28;20021;-70
2021/07/11 08:42:40;;;;;;;25.20;4.53;;;;;;;18.53;100.00;98047.59;5043550;28;20537;-69
2021/07/11 08:45:06;;;;;;;32.95;5.03;;;;;;;18.76;97.89;98047.69;5044543;28;20615;-69
2021/07/11 08:47:32;;;;;;;36.33;5.40;;;;;;;18.63;100.00;98048.59;5044048;28;20040;-70
2021/07/11 08:49:57;;;;;;;33.25;5.00;;;;;;;18.32;100.00;98055.25;5044781;28;20024;-69
2021/07/11 08:52:23;;;;;;;29.70;5.00;;;;;;;18.53;100.00;98063.44;5044356;28;20033;-69
2021/07/11 08:54:48;;;;;;;24.92;4.07;;;;;;;18.83;99.55;98062.19;5044739;28;20859;-68
2021/07/11 08:57:13;;;;;;;31.38;4.78;;;;;;;18.71;98.05;98063.03;5044274;28;20041;-70
2021/07/11 09:02:08;;;;;;;40.85;5.50;;;;;;;18.46;100.00;98056.91;5020734;28;20393;-70
2021/07/11 09:04:38;;;;;;;32.20;5.25;;;;;;;18.35;100.00;98064.78;5007641;28;20137;-70
2021/07/11 09:07:05;;;;;;;34.20;5.40;;;;;;;18.50;100.00;98067.13;5016176;28;20049;-70
2021/07/11 09:09:32;;;;;;;29.35;5.10;;;;;;;18.56;100.00;98068.47;5007421;28;20604;-72
2021/07/11 09:12:18;;;;;;;33.83;5.25;;;;;;;18.40;100.00;98062.66;5006572;28;20037;-70
2021/07/11 09:14:44;;;;;;;26.73;4.53;;;;;;;18.34;100.00;98069.19;5008988;28;20052;-71
2021/07/11 09:17:11;;;;;;;31.02;5.10;;;;;;;18.20;100.00;98062.25;5009645;28;20045;-71
2021/07/11 09:19:48;;;;;;;28.10;5.00;;;;;;;18.32;100.00;98075.53;5006109;28;20184;-72
2021/07/11 09:22:21;;;;;;;33.10;5.38;;;;;;;18.13;100.00;98070.75;5007136;28;20042;-74
2021/07/11 09:24:58;;;;;;;36.95;5.85;;;;;;;18.20;100.00;98069.34;5008183;28;20767;-73
2021/07/11 09:27:26;;;;;;;25.63;4.65;;;;;;;18.33;100.00;98071.97;5006554;28;20038;-72
2021/07/11 09:29:52;;;;;;;32.03;5.45;;;;;;;18.19;100.00;98079.03;5006925;28;20038;-71
2021/07/11 09:32:28;;;;;;;30.00;5.38;;;;;;;18.51;100.00;98078.56;5010868;28;20088;-71
2021/07/11 09:34:54;;;;;;;36.13;5.80;;;;;;;18.30;100.00;98079.13;5007406;28;20928;-71
2021/07/11 09:37:21;;;;;;;37.25;5.35;;;;;;;18.37;100.00;98078.69;5006495;28;20038;-70
2021/07/11 09:39:53;;;;;;;31.30;5.13;;;;;;;18.42;100.00;98082.69;5006345;28;20112;-72
2021/07/11 09:42:28;;;;;;;30.70;5.13;;;;;;;18.44;100.00;98085.22;5008653;28;20042;-72
2021/07/11 09:44:55;;;;;;;35.53;5.43;;;;;;;18.65;97.23;98085.47;5008543;28;20328;-71
2021/07/11 09:47:23;;;;;;;34.80;5.53;;;;;;;18.50;100.00;98080.34;5005128;28;20042;-71
2021/07/11 09:49:58;;;;;;;33.17;5.07;;;;;;;18.36;100.00;98088.44;5007431;28;20036;-70
2021/07/11 09:52:26;;;;;;;44.42;6.13;;;;;;;18.55;100.00;98087.94;5008852;28;20095;-71
2021/07/11 09:54:57;;;;;;;30.95;5.13;;;;;;;18.58;100.00;98093.00;5008263;28;20601;-71
2021/07/11 09:57:39;;;;;;;36.92;5.57;;;;;;;18.74;98.12;98094.53;5006730;28;20041;-69
2021/07/11 10:00:11;;;;;;;33.53;5.47;;;;;;;18.54;97.99;98096.81;5002859;28;20033;-72
2021/07/11 10:02:39;;;;;;;34.90;5.38;;;;;;;18.69;96.40;98095.72;5004815;28;20018;-70
2021/07/11 10:05:06;;;;;;;32.80;5.22;;;;;;;18.35;100.00;98109.66;5008042;28;20034;-70
2021/07/11 10:07:33;;;;;;;38.10;5.72;;;;;;;18.27;98.86;98100.47;5004930;28;20133;-71
2021/07/11 10:09:59;;;;;;;43.85;5.95;;;;;;;18.81;94.99;98106.38;5005130;28;20037;-70
2021/07/11 10:12:24;;;;;;;32.20;5.18;;;;;;;18.64;96.29;98107.56;4998276;28;20037;-71
2021/07/11 10:14:49;;;;;;;42.28;5.80;;;;;;;18.83;95.77;98101.81;4992285;28;20022;-72
2021/07/11 10:17:16;;;;;;;30.67;5.22;;;;;;;18.73;95.90;98111.31;4992379;28;20210;-74
2021/07/11 10:19:49;;;;;;;29.88;5.15;;;;;;;18.71;94.26;98111.47;4994373;28;20414;-72
2021/07/11 10:22:16;;;;;;;37.08;5.65;;;;;;;18.71;95.77;98111.47;4994240;28;20049;-71
2021/07/11 10:24:43;;;;;;;39.03;5.88;;;;;;;18.80;94.81;98117.84;4993086;28;20103;-70
2021/07/11 10:27:24;;;;;;;34.75;5.20;;;;;;;18.79;92.07;98111.72;4991982;28;20049;-71
2021/07/11 10:29:55;;;;;;;34.58;6.07;;;;;;;18.42;95.52;98108.28;4994228;28;20108;-70
2021/07/11 10:32:29;;;;;;;39.47;5.78;;;;;;;18.57;95.19;98109.81;4994516;28;20503;-70
2021/07/11 10:35:16;;;;;;;32.72;5.47;;;;;;;18.54;94.13;98104.72;4992445;28;20034;-70
2021/07/11 10:37:45;;;;;;;38.03;5.60;;;;;;;18.68;93.78;98103.75;4996196;28;20042;-72
2021/07/11 10:40:32;;;;;;;34.85;5.78;;;;;;;18.35;97.70;98107.00;4991996;28;20034;-70
2021/07/11 10:42:58;;;;;;;39.95;6.22;;;;;;;18.58;98.04;98102.72;4988310;28;20034;-72
2021/07/11 10:45:23;;;;;;;32.33;5.35;;;;;;;18.42;95.29;98105.63;4990223;28;20034;-71
2021/07/11 10:47:50;;;;;;;28.30;5.00;;;;;;;18.34;96.82;98100.03;4993210;28;20025;-71
2021/07/11 10:50:23;;;;;;;35.08;5.80;;;;;;;18.40;99.20;98104.91;4993008;28;20057;-73
2021/07/11 10:52:49;;;;;;;30.95;5.53;;;;;;;18.33;100.00;98108.94;4992883;28;20034;-70
2021/07/11 10:55:15;;;;;;;51.05;6.97;;;;;;;18.58;97.38;98106.22;4989798;28;20080;-70
2021/07/11 10:57:40;;;;;;;40.60;6.57;;;;;;;18.55;96.97;98114.34;4991929;28;20165;-70
2021/07/11 11:00:19;;;;;;;47.88;7.05;;;;;;;18.45;99.94;98105.38;4990591;28;20099;-71
2021/07/11 11:02:47;;;;;;;27.92;5.38;;;;;;;18.42;98.56;98105.63;4992312;28;20072;-70
2021/07/11 11:05:23;;;;;;;35.72;5.70;;;;;;;18.80;96.79;98107.28;4993508;28;20026;-71
2021/07/11 11:07:56;;;;;;;40.83;6.68;;;;;;;18.81;96.39;98104.56;4993345;28;20544;-71
2021/07/11 11:10:29;;;;;;;34.00;5.72;;;;;;;18.83;96.69;98094.72;4991483;28;20034;-70
2021/07/11 11:13:26;;;;;;;26.13;5.15;;;;;;;18.97;96.77;98104.28;4993114;28;20171;-69
2021/07/11 11:15:56;;;;;;;34.65;6.45;;;;;;;18.78;100.00;98106.56;4991721;28;20042;-68
2021/07/11 11:18:33;;;;;;;29.90;6.30;;;;;;;19.02;97.52;98094.22;4994282;28;20030;-70
2021/07/11 11:21:17;;;;;;;42.70;6.65;;;;;;;19.19;97.71;98102.72;4993693;28;20559;-70
2021/07/11 11:23:43;;;;;;;29.65;5.97;;;;;;;19.19;97.53;98098.25;4990972;28;20040;-70
2021/07/11 11:26:13;;;;;;;36.92;7.05;;;;;;;19.18;98.08;98106.28;4993998;28;20038;-70
2021/07/11 11:28:42;;;;;;;33.13;5.88;;;;;;;19.32;94.00;98092.88;4993855;28;20037;-70
2021/07/11 11:31:07;;;;;;;30.75;5.60;;;;;;;19.70;93.59;98097.03;4991652;28;20026;-70
2021/07/11 11:33:58;;;;;;;27.17;5.90;;;;;;;19.35;92.36;98097.09;4992567;28;20033;-70
2021/07/11 11:36:35;;;;;;;36.55;5.82;;;;;;;19.51;93.09;98102.06;4990146;28;20305;-71
2021/07/11 11:39:31;;;;;;;34.08;6.25;;;;;;;19.35;96.99;98100.56;4992750;28;20048;-70